Main page
METAR-TAF:

METAR-TAF

Airports :

Tadoule Lake Airport

Tadoule Lake, Manitoba, Canada

latitude: 58-42-22N, longitude: 98-30-44W, elevation: 281 m

Current weather observation

The report was made 47 minutes ago, at 13:00 UTC
Wind 4 kt from the South
Temperature 4°C
Humidity 75%
Pressure 1023 hPa
Visibility: 14.5 km
Clear sky

METAR: CYBQ 201300Z AUTO 19004KT 9SM CLR 04/00 A3020 RMK SLP242

Time: 08:47 (13:47 UTC)


TAF: missing

Weather observations and forecasts of more than 4000 airports (METAR and TAF reports).

The available stations are represented by yellow and red dots on the map.

Hover mouse over dot to see the name of the station.

Then click to see weather observations and forecasts.

To change the map : click on the green buttons with a black cross to zoom in, on the green button with a dash to zoom out, or on the green arrows for adjacent maps.


METAR-TAF: